Time;durP1;ratioP1;P1;durP2;ratioP2;P2;SDS_P1;SDS_P2;PMS_P1;PMS_P2;Temp;Humidity;BMP_temperature;BMP_pressure;BME280_temperature;BME280_humidity;BME280_pressure;Samples;Min_cycle;Max_cycle;Signal;HPM_P1;HPM_P2
2022/01/14 00:01:05;;;;;;;47.90;19.57;;;2.10;99.90;;;;;;5086124;28;20198;-69
2022/01/14 00:03:33;;;;;;;41.37;17.93;;;2.20;99.90;;;;;;5092360;28;20204;-69
2022/01/14 00:06:00;;;;;;;48.13;18.67;;;2.30;99.90;;;;;;5080814;28;20204;-69
2022/01/14 00:08:26;;;;;;;49.73;17.93;;;2.30;99.90;;;;;;5092016;28;20202;-69
2022/01/14 00:10:56;;;;;;;43.23;18.13;;;2.30;99.90;;;;;;5090255;28;20197;-69
2022/01/14 00:13:47;;;;;;;40.47;17.60;;;2.40;99.90;;;;;;5091915;28;20204;-69
2022/01/14 00:16:16;;;;;;;48.03;20.23;;;2.40;99.90;;;;;;5087743;28;20195;-69
2022/01/14 00:18:42;;;;;;;42.67;18.77;;;2.40;99.90;;;;;;5071993;28;20252;-69
2022/01/14 00:21:09;;;;;;;47.63;19.90;;;2.50;99.90;;;;;;5082463;28;20197;-69
2022/01/14 00:23:39;;;;;;;43.53;18.20;;;2.50;99.90;;;;;;5081215;28;20221;-69
2022/01/14 00:31:46;;;;;;;42.77;18.73;;;2.60;99.90;;;;;;5073160;28;20706;-69
2022/01/14 00:34:14;;;;;;;39.60;15.80;;;2.60;99.90;;;;;;5088243;28;20287;-69
2022/01/14 00:36:41;;;;;;;40.27;18.83;;;2.60;99.90;;;;;;5071913;28;20260;-69
2022/01/14 00:39:10;;;;;;;39.10;16.93;;;2.70;99.90;;;;;;5091569;28;20198;-69
2022/01/14 00:41:37;;;;;;;45.73;17.27;;;2.70;99.90;;;;;;5091935;28;20560;-69
2022/01/14 00:44:10;;;;;;;47.43;17.97;;;2.70;99.90;;;;;;5072759;28;20198;-69
2022/01/14 00:46:39;;;;;;;42.33;17.03;;;2.80;99.90;;;;;;5080288;28;20640;-69
2022/01/14 00:49:06;;;;;;;46.03;18.50;;;2.80;99.90;;;;;;5095038;28;20216;-69
2022/01/14 00:51:35;;;;;;;44.50;18.73;;;2.80;99.90;;;;;;5095097;28;20595;-69
2022/01/14 00:54:02;;;;;;;43.67;17.63;;;2.90;99.90;;;;;;5094775;28;20624;-69
2022/01/14 00:56:33;;;;;;;46.43;18.93;;;2.90;99.90;;;;;;5095785;28;20198;-69
2022/01/14 00:59:15;;;;;;;38.43;17.40;;;2.90;99.90;;;;;;5095149;28;20232;-69
2022/01/14 01:01:45;;;;;;;43.60;18.10;;;2.90;99.90;;;;;;5083392;28;20621;-69
2022/01/14 01:04:13;;;;;;;42.17;17.37;;;2.90;99.90;;;;;;5076811;28;20198;-69
2022/01/14 01:06:41;;;;;;;44.80;18.90;;;2.90;99.90;;;;;;5085426;28;20213;-69
2022/01/14 01:09:11;;;;;;;40.17;17.73;;;2.90;99.90;;;;;;5091144;28;20546;-69
2022/01/14 01:11:42;;;;;;;42.13;16.97;;;3.00;99.90;;;;;;5082483;28;20525;-69
2022/01/14 01:14:12;;;;;;;41.10;19.20;;;3.00;99.90;;;;;;5094310;28;20302;-69
2022/01/14 01:16:40;;;;;;;41.33;17.27;;;3.10;99.90;;;;;;5090382;28;20251;-69
2022/01/14 01:19:08;;;;;;;45.43;18.50;;;3.10;99.90;;;;;;5076046;28;20596;-69
2022/01/14 01:21:35;;;;;;;44.33;19.70;;;3.10;99.90;;;;;;5082470;28;20209;-69
2022/01/14 01:24:03;;;;;;;38.50;17.97;;;3.10;99.90;;;;;;5079814;28;20564;-69
2022/01/14 01:26:33;;;;;;;41.47;18.20;;;3.10;99.90;;;;;;5094530;28;20202;-69
2022/01/14 01:29:09;;;;;;;41.03;18.83;;;3.10;99.90;;;;;;5094891;28;20245;-69
2022/01/14 01:31:37;;;;;;;40.80;17.43;;;3.10;99.90;;;;;;5090835;28;20200;-69
2022/01/14 01:34:06;;;;;;;42.07;18.17;;;3.10;99.90;;;;;;5077046;28;20599;-69
2022/01/14 01:36:34;;;;;;;42.33;16.47;;;3.10;99.90;;;;;;5091623;28;20236;-69
2022/01/14 01:39:02;;;;;;;40.77;17.87;;;3.10;99.90;;;;;;5094284;28;20205;-69
2022/01/14 01:41:30;;;;;;;39.77;18.27;;;3.20;99.90;;;;;;5089252;28;20199;-69
2022/01/14 01:43:59;;;;;;;40.97;18.03;;;3.20;99.90;;;;;;5077923;28;20209;-69
2022/01/14 01:46:26;;;;;;;42.73;18.97;;;3.20;99.90;;;;;;5094308;28;20361;-69
2022/01/14 01:48:54;;;;;;;45.03;18.77;;;3.20;99.90;;;;;;5083736;28;20194;-69
2022/01/14 01:51:21;;;;;;;41.63;17.57;;;3.20;99.90;;;;;;5085529;28;20561;-69
2022/01/14 01:53:50;;;;;;;41.77;18.13;;;3.20;99.90;;;;;;5093950;28;20198;-69
2022/01/14 01:56:18;;;;;;;40.77;17.13;;;3.20;99.90;;;;;;5092359;28;20690;-69
2022/01/14 01:58:45;;;;;;;39.30;15.90;;;3.20;99.90;;;;;;5094673;28;20206;-69
2022/01/14 02:01:12;;;;;;;41.10;18.43;;;3.20;99.90;;;;;;5084410;28;20209;-69
2022/01/14 02:03:39;;;;;;;40.17;18.27;;;3.20;99.90;;;;;;5084854;28;20205;-69
2022/01/14 02:06:06;;;;;;;41.63;17.23;;;3.20;99.90;;;;;;5093893;28;20200;-69
2022/01/14 02:08:33;;;;;;;40.03;16.63;;;3.30;99.90;;;;;;5082271;28;20198;-69
2022/01/14 02:11:02;;;;;;;42.10;19.03;;;3.30;99.90;;;;;;5090007;28;20644;-69
2022/01/14 02:13:31;;;;;;;35.77;16.37;;;3.30;99.90;;;;;;5083242;28;20202;-69
2022/01/14 02:16:19;;;;;;;38.87;17.17;;;3.30;99.90;;;;;;5092707;28;20218;-69
2022/01/14 02:19:11;;;;;;;37.97;16.53;;;3.30;99.90;;;;;;5091747;28;20198;-69
2022/01/14 02:24:44;;;;;;;37.53;16.17;;;3.30;99.90;;;;;;5088468;28;20352;-69
2022/01/14 02:27:12;;;;;;;37.27;17.40;;;3.30;99.90;;;;;;5083515;28;20647;-69
2022/01/14 02:29:40;;;;;;;35.17;14.77;;;3.40;99.90;;;;;;5092843;28;20202;-69
2022/01/14 02:32:08;;;;;;;36.77;15.87;;;3.30;99.90;;;;;;5093056;28;20643;-69
2022/01/14 02:34:37;;;;;;;35.50;16.10;;;3.30;99.90;;;;;;5092857;28;20212;-69
2022/01/14 02:37:06;;;;;;;40.93;17.80;;;3.30;99.90;;;;;;5077517;28;20209;-69
2022/01/14 02:39:33;;;;;;;38.40;17.10;;;3.30;99.90;;;;;;5081110;28;20524;-69
2022/01/14 02:42:00;;;;;;;35.07;15.60;;;3.40;99.90;;;;;;5084836;28;20198;-69
2022/01/14 02:44:29;;;;;;;36.53;16.27;;;3.40;99.90;;;;;;5079087;28;20198;-69
2022/01/14 02:47:03;;;;;;;36.03;15.43;;;3.40;99.90;;;;;;5073207;28;20206;-69
2022/01/14 02:49:32;;;;;;;34.33;15.40;;;3.40;99.90;;;;;;5078085;28;20277;-69
2022/01/14 02:52:03;;;;;;;35.20;16.57;;;3.40;99.90;;;;;;5093533;28;20301;-69
2022/01/14 02:54:39;;;;;;;37.33;17.13;;;3.40;99.90;;;;;;5092768;28;20701;-69
2022/01/14 02:57:08;;;;;;;35.97;16.20;;;3.40;99.90;;;;;;5091550;28;20209;-69
2022/01/14 02:59:36;;;;;;;37.00;15.33;;;3.40;99.90;;;;;;5092356;28;20565;-69
2022/01/14 03:02:07;;;;;;;36.07;16.40;;;3.40;99.90;;;;;;5078059;28;20546;-69
2022/01/14 03:04:39;;;;;;;35.07;16.00;;;3.40;99.90;;;;;;5083240;28;20678;-69
2022/01/14 03:07:08;;;;;;;37.40;16.50;;;3.40;99.90;;;;;;5076690;28;20202;-69
2022/01/14 03:09:37;;;;;;;34.97;14.90;;;3.50;99.90;;;;;;5090971;28;20477;-69
2022/01/14 03:12:05;;;;;;;37.47;16.40;;;3.50;99.90;;;;;;5093212;28;20684;-67
2022/01/14 03:14:32;;;;;;;35.33;16.13;;;3.50;99.90;;;;;;5092451;28;20658;-68
2022/01/14 03:17:00;;;;;;;33.97;14.97;;;3.50;99.90;;;;;;5090813;28;20223;-67
2022/01/14 03:19:28;;;;;;;33.33;15.43;;;3.50;99.90;;;;;;5087996;28;20271;-67
2022/01/14 03:22:05;;;;;;;35.67;16.33;;;3.50;99.90;;;;;;5076572;28;20205;-68
2022/01/14 03:27:19;;;;;;;36.03;15.77;;;3.50;99.90;;;;;;5073261;28;20205;-68
2022/01/14 03:29:46;;;;;;;32.03;15.23;;;3.60;99.90;;;;;;5092202;28;20202;-68
2022/01/14 03:32:13;;;;;;;36.30;17.17;;;3.60;99.90;;;;;;5091765;28;20193;-68
2022/01/14 03:34:40;;;;;;;39.17;16.67;;;3.50;99.90;;;;;;5092234;28;20262;-68
2022/01/14 03:37:07;;;;;;;33.63;15.57;;;3.60;99.90;;;;;;5089335;28;20573;-67
2022/01/14 03:39:34;;;;;;;35.33;17.10;;;3.60;99.90;;;;;;5074625;28;20214;-68
2022/01/14 03:42:01;;;;;;;34.83;16.10;;;3.60;99.90;;;;;;5075176;28;20202;-67
2022/01/14 03:44:29;;;;;;;33.37;16.10;;;3.60;99.90;;;;;;5073623;28;20197;-68
2022/01/14 03:46:56;;;;;;;34.70;16.13;;;3.60;99.90;;;;;;5078096;28;20198;-67
2022/01/14 03:49:23;;;;;;;33.63;15.20;;;3.60;99.90;;;;;;5073161;28;20201;-68
2022/01/14 03:51:49;;;;;;;32.57;15.27;;;3.60;99.90;;;;;;5084729;28;20198;-68
2022/01/14 03:54:16;;;;;;;33.37;15.80;;;3.60;99.90;;;;;;5082979;28;20904;-68
2022/01/14 03:56:43;;;;;;;33.30;16.43;;;3.60;99.90;;;;;;5082338;28;20313;-67
2022/01/14 03:59:10;;;;;;;36.50;15.77;;;3.60;99.90;;;;;;5073112;28;20268;-68
2022/01/14 04:01:38;;;;;;;38.10;16.77;;;3.60;99.90;;;;;;5084477;28;20212;-67
2022/01/14 04:04:05;;;;;;;36.70;16.97;;;3.70;99.90;;;;;;5090319;28;20597;-68
2022/01/14 04:06:32;;;;;;;38.17;16.67;;;3.70;99.90;;;;;;5093631;28;20696;-68
2022/01/14 04:08:59;;;;;;;38.33;17.43;;;3.70;99.90;;;;;;5110490;28;20197;-68
2022/01/14 04:11:26;;;;;;;33.47;16.10;;;3.70;99.90;;;;;;5094481;28;20205;-68
2022/01/14 04:13:56;;;;;;;32.70;16.00;;;3.70;99.90;;;;;;5092073;28;20205;-68
2022/01/14 04:16:24;;;;;;;34.03;16.77;;;3.70;99.90;;;;;;5084521;28;20256;-68
2022/01/14 04:18:53;;;;;;;38.53;17.80;;;3.70;99.90;;;;;;5092404;28;20202;-68
2022/01/14 04:21:20;;;;;;;37.03;15.80;;;3.70;99.90;;;;;;5096189;28;20204;-68
2022/01/14 04:23:47;;;;;;;34.30;16.87;;;3.70;99.90;;;;;;5089701;28;20201;-68
2022/01/14 04:26:15;;;;;;;34.30;16.67;;;3.80;99.90;;;;;;5085056;28;20190;-68
2022/01/14 04:28:42;;;;;;;33.03;15.87;;;3.80;99.90;;;;;;5089477;28;20208;-68
2022/01/14 04:31:10;;;;;;;36.67;17.10;;;3.80;99.90;;;;;;5096321;28;20205;-68
2022/01/14 04:33:37;;;;;;;37.83;16.60;;;3.70;99.90;;;;;;5077226;28;20191;-68
2022/01/14 04:36:07;;;;;;;35.47;16.33;;;3.80;99.90;;;;;;5091546;28;20227;-68
2022/01/14 04:38:35;;;;;;;33.60;16.00;;;3.70;99.90;;;;;;5096237;28;20641;-68
2022/01/14 04:41:02;;;;;;;36.43;16.27;;;3.70;99.90;;;;;;5095944;28;20656;-68
2022/01/14 04:43:29;;;;;;;41.37;16.27;;;3.70;99.90;;;;;;5095849;28;20204;-68
2022/01/14 04:46:24;;;;;;;35.17;16.10;;;3.60;99.90;;;;;;5095839;28;20209;-68
2022/01/14 04:48:50;;;;;;;36.57;16.20;;;3.60;99.90;;;;;;5095647;28;20247;-68
2022/01/14 04:51:20;;;;;;;35.97;17.13;;;3.60;99.90;;;;;;5095659;28;20223;-68
2022/01/14 04:53:47;;;;;;;36.53;15.93;;;3.70;99.90;;;;;;5095726;28;20221;-67
2022/01/14 04:56:13;;;;;;;34.97;15.37;;;3.70;99.90;;;;;;5095403;28;20224;-68
2022/01/14 04:58:40;;;;;;;34.57;15.43;;;3.70;99.90;;;;;;5095688;28;20201;-68
2022/01/14 05:01:07;;;;;;;36.03;16.33;;;3.70;99.90;;;;;;5095976;28;20227;-68
2022/01/14 05:03:34;;;;;;;35.47;16.23;;;3.70;99.90;;;;;;5095568;28;20205;-68
2022/01/14 05:06:02;;;;;;;30.87;15.73;;;3.70;99.90;;;;;;5095320;28;20665;-68
2022/01/14 05:08:36;;;;;;;37.50;17.67;;;3.80;99.90;;;;;;5095783;28;20300;-67
2022/01/14 05:11:19;;;;;;;35.73;16.63;;;3.80;99.90;;;;;;5095133;28;20220;-68
2022/01/14 05:13:46;;;;;;;34.73;17.27;;;3.80;99.90;;;;;;5095620;28;20699;-68
2022/01/14 05:16:13;;;;;;;35.07;16.43;;;3.90;99.90;;;;;;5094777;28;20225;-67
2022/01/14 05:18:40;;;;;;;34.77;15.87;;;3.90;99.90;;;;;;5095178;28;20201;-68
2022/01/14 05:21:07;;;;;;;39.90;17.87;;;3.90;99.90;;;;;;5095271;28;20560;-68
2022/01/14 05:23:35;;;;;;;36.90;17.20;;;3.90;99.90;;;;;;5095053;28;20552;-67
2022/01/14 05:26:03;;;;;;;35.47;16.80;;;3.90;99.90;;;;;;5095499;28;20224;-68
2022/01/14 05:28:30;;;;;;;30.67;15.33;;;3.90;99.90;;;;;;5095282;28;20707;-68
2022/01/14 05:30:57;;;;;;;37.83;16.90;;;3.90;99.90;;;;;;5093671;28;20212;-68
2022/01/14 05:33:24;;;;;;;32.70;15.40;;;3.90;99.90;;;;;;5095061;28;20672;-68
2022/01/14 05:35:51;;;;;;;36.10;16.30;;;3.90;99.90;;;;;;5094681;28;20243;-68
2022/01/14 05:38:18;;;;;;;34.30;16.77;;;3.90;99.90;;;;;;5094819;28;20632;-68
2022/01/14 05:40:46;;;;;;;36.30;16.80;;;3.90;99.90;;;;;;5094663;28;20201;-68
2022/01/14 05:43:13;;;;;;;36.30;16.43;;;3.90;99.90;;;;;;5094833;28;20201;-68
2022/01/14 05:45:40;;;;;;;37.50;16.90;;;3.90;99.90;;;;;;5095054;28;20201;-68
2022/01/14 05:48:07;;;;;;;36.40;16.43;;;3.90;99.90;;;;;;5094613;28;20206;-68
2022/01/14 05:50:35;;;;;;;33.97;16.13;;;3.90;99.90;;;;;;5094652;28;20220;-68
2022/01/14 05:53:01;;;;;;;34.13;16.27;;;3.90;99.90;;;;;;5094460;28;20198;-68
2022/01/14 05:55:28;;;;;;;35.43;15.90;;;3.90;99.90;;;;;;5094507;28;20209;-68
2022/01/14 05:57:56;;;;;;;36.83;17.23;;;4.00;99.90;;;;;;5094610;28;20225;-68
2022/01/14 06:00:23;;;;;;;42.17;16.37;;;4.00;99.90;;;;;;5094600;28;20202;-68
2022/01/14 06:02:52;;;;;;;37.40;16.57;;;4.00;99.90;;;;;;5094124;28;20761;-68
2022/01/14 06:05:20;;;;;;;37.40;15.43;;;4.00;99.90;;;;;;5094368;28;20206;-68
2022/01/14 06:07:47;;;;;;;34.37;15.50;;;4.00;99.90;;;;;;5094746;28;20559;-68
2022/01/14 06:10:14;;;;;;;33.70;15.67;;;4.00;99.90;;;;;;5094285;28;20197;-68
2022/01/14 06:12:41;;;;;;;36.27;17.97;;;4.00;99.90;;;;;;5094310;28;20228;-68
2022/01/14 06:15:10;;;;;;;34.47;16.33;;;4.00;99.90;;;;;;5093916;28;20201;-67
2022/01/14 06:17:37;;;;;;;33.60;15.60;;;4.00;99.90;;;;;;5093838;28;20232;-68
2022/01/14 06:20:04;;;;;;;37.47;18.40;;;4.00;99.90;;;;;;5094499;28;20224;-68
2022/01/14 06:22:32;;;;;;;34.83;16.03;;;4.00;99.90;;;;;;5094086;28;20209;-68
2022/01/14 06:25:00;;;;;;;34.30;15.70;;;4.00;99.90;;;;;;5093500;28;20586;-68
2022/01/14 06:27:27;;;;;;;33.83;15.00;;;3.90;99.90;;;;;;5093212;28;20293;-68
2022/01/14 06:29:54;;;;;;;35.30;15.63;;;3.90;99.90;;;;;;5093478;28;20201;-67
2022/01/14 06:32:22;;;;;;;35.30;15.80;;;4.00;99.90;;;;;;5093522;28;20656;-68
2022/01/14 06:34:49;;;;;;;37.20;16.03;;;4.00;99.90;;;;;;5093145;28;20206;-70
2022/01/14 06:37:15;;;;;;;31.40;15.00;;;3.90;99.90;;;;;;5093698;28;20699;-71
2022/01/14 06:39:42;;;;;;;35.57;16.27;;;3.90;99.90;;;;;;5094087;28;20212;-71
2022/01/14 06:42:09;;;;;;;33.73;15.60;;;3.90;99.90;;;;;;5093356;28;20201;-71
2022/01/14 06:44:36;;;;;;;39.07;17.00;;;3.90;99.90;;;;;;5093696;28;20702;-71
2022/01/14 06:47:03;;;;;;;33.53;15.23;;;3.90;99.90;;;;;;5093618;28;20198;-71
2022/01/14 06:49:32;;;;;;;34.90;15.40;;;3.90;99.90;;;;;;5093798;28;20223;-71
2022/01/14 06:51:58;;;;;;;34.40;16.17;;;3.90;99.90;;;;;;5093555;28;20669;-71
2022/01/14 06:54:25;;;;;;;34.57;16.07;;;3.90;99.90;;;;;;5093272;28;20212;-71
2022/01/14 06:56:52;;;;;;;35.50;15.37;;;3.90;99.90;;;;;;5093597;28;20213;-71
2022/01/14 06:59:19;;;;;;;32.27;15.27;;;3.90;99.90;;;;;;5092881;28;20208;-71
2022/01/14 07:01:46;;;;;;;33.27;15.43;;;3.90;99.90;;;;;;5093609;28;20204;-71
2022/01/14 07:04:13;;;;;;;34.73;16.70;;;3.90;99.90;;;;;;5093932;28;20213;-71
2022/01/14 07:06:41;;;;;;;36.80;16.37;;;3.90;99.90;;;;;;5100194;28;20553;-71
2022/01/14 07:09:08;;;;;;;33.97;15.83;;;3.90;99.90;;;;;;5103740;28;20292;-71
2022/01/14 07:11:37;;;;;;;34.37;15.40;;;3.90;99.90;;;;;;5099767;28;20204;-71
2022/01/14 07:14:04;;;;;;;33.47;17.07;;;3.90;99.90;;;;;;5098097;28;20209;-71
2022/01/14 07:16:32;;;;;;;36.93;16.90;;;3.90;99.90;;;;;;5098738;28;20586;-71
2022/01/14 07:19:00;;;;;;;36.00;16.20;;;3.90;99.90;;;;;;5106125;28;20201;-71
2022/01/14 07:21:27;;;;;;;37.73;16.00;;;3.90;99.90;;;;;;5096391;28;20681;-71
2022/01/14 07:23:55;;;;;;;33.10;15.37;;;3.90;99.90;;;;;;5096230;28;20208;-71
2022/01/14 07:26:22;;;;;;;33.87;15.87;;;3.90;99.90;;;;;;5098038;28;20566;-71
2022/01/14 07:28:49;;;;;;;36.97;16.77;;;3.90;99.90;;;;;;5101856;28;20655;-71
2022/01/14 07:31:16;;;;;;;36.47;15.57;;;4.00;99.90;;;;;;5099999;28;20288;-71
2022/01/14 07:33:42;;;;;;;37.97;16.93;;;4.00;99.90;;;;;;5097486;28;20568;-71
2022/01/14 07:36:09;;;;;;;34.77;17.23;;;4.00;99.90;;;;;;5094651;28;20209;-71
2022/01/14 07:38:36;;;;;;;40.60;18.57;;;4.00;99.90;;;;;;5095906;28;20208;-71
2022/01/14 07:41:05;;;;;;;40.10;17.87;;;4.10;99.90;;;;;;5102750;28;20673;-71
2022/01/14 07:43:32;;;;;;;39.07;18.93;;;4.10;99.90;;;;;;5100606;28;20200;-71
2022/01/14 07:45:59;;;;;;;43.20;19.57;;;4.20;99.90;;;;;;5095402;28;20208;-71
2022/01/14 07:48:26;;;;;;;43.40;19.63;;;4.20;99.90;;;;;;5099082;28;20193;-71
2022/01/14 07:50:52;;;;;;;38.33;18.33;;;4.30;99.90;;;;;;5103318;28;20193;-71
2022/01/14 07:53:19;;;;;;;46.77;20.23;;;4.30;99.90;;;;;;5096489;28;20284;-71
2022/01/14 07:55:46;;;;;;;42.03;19.77;;;4.30;99.90;;;;;;5100895;28;20554;-71
2022/01/14 07:58:16;;;;;;;40.23;18.90;;;4.30;99.90;;;;;;5098419;28;20221;-71
2022/01/14 08:00:43;;;;;;;40.00;19.63;;;4.40;99.90;;;;;;5104170;28;20542;-71
2022/01/14 08:03:10;;;;;;;43.50;19.27;;;4.40;99.90;;;;;;5105692;28;20561;-71
2022/01/14 08:05:37;;;;;;;39.40;19.73;;;4.40;99.90;;;;;;5099184;28;20208;-71
2022/01/14 08:08:07;;;;;;;39.03;19.40;;;4.40;99.90;;;;;;5101341;28;20297;-71
2022/01/14 08:10:35;;;;;;;43.30;20.27;;;4.50;99.90;;;;;;5108228;28;20226;-71
2022/01/14 08:13:02;;;;;;;40.27;20.57;;;4.50;99.90;;;;;;5102178;28;20665;-71
2022/01/14 08:15:30;;;;;;;42.23;20.17;;;4.50;99.90;;;;;;5099137;28;20212;-71
2022/01/14 08:17:59;;;;;;;39.47;19.67;;;4.50;99.90;;;;;;5101797;28;20205;-71
2022/01/14 08:20:26;;;;;;;39.67;20.67;;;4.50;99.90;;;;;;5104249;28;20205;-71
2022/01/14 08:22:53;;;;;;;39.67;21.20;;;4.50;99.90;;;;;;5100368;28;20655;-71
2022/01/14 08:25:20;;;;;;;35.40;18.57;;;4.50;99.90;;;;;;5104010;28;20197;-71
2022/01/14 08:27:47;;;;;;;41.87;20.00;;;4.40;99.90;;;;;;5100070;28;20204;-71
2022/01/14 08:30:14;;;;;;;40.10;20.23;;;4.40;99.90;;;;;;5101308;28;20288;-71
2022/01/14 08:32:42;;;;;;;39.10;20.10;;;4.50;99.90;;;;;;5100816;28;20193;-71
2022/01/14 08:35:10;;;;;;;37.93;18.90;;;4.50;99.90;;;;;;5105040;28;20212;-71
2022/01/14 08:37:38;;;;;;;36.07;19.37;;;4.40;99.90;;;;;;5098318;28;20220;-71
2022/01/14 08:40:07;;;;;;;43.07;19.30;;;4.50;99.90;;;;;;5103547;28;20201;-71
2022/01/14 08:42:34;;;;;;;42.53;19.77;;;4.50;99.90;;;;;;5103153;28;20564;-71
2022/01/14 08:45:01;;;;;;;41.67;19.40;;;4.50;99.90;;;;;;5102145;28;20204;-71
2022/01/14 08:47:29;;;;;;;38.43;18.43;;;4.50;99.90;;;;;;5099144;28;20202;-71
2022/01/14 08:49:57;;;;;;;36.90;18.50;;;4.60;99.90;;;;;;5101227;28;20229;-71
2022/01/14 08:52:24;;;;;;;41.90;19.87;;;4.50;99.90;;;;;;5104643;28;20202;-71
2022/01/14 08:54:51;;;;;;;38.77;19.10;;;4.60;99.90;;;;;;5103607;28;20198;-71
2022/01/14 08:57:18;;;;;;;39.90;20.50;;;4.60;99.90;;;;;;5105119;28;20551;-71
2022/01/14 08:59:45;;;;;;;43.47;20.73;;;4.60;99.90;;;;;;5098273;28;20198;-71
2022/01/14 09:02:12;;;;;;;40.10;20.80;;;4.70;99.90;;;;;;5105191;28;20201;-71
2022/01/14 09:04:40;;;;;;;41.50;19.60;;;4.70;99.90;;;;;;5100083;28;20788;-71
2022/01/14 09:07:08;;;;;;;48.73;22.30;;;4.70;99.90;;;;;;5106415;28;20672;-71
2022/01/14 09:09:35;;;;;;;43.67;20.40;;;4.80;99.90;;;;;;5098071;28;20204;-71
2022/01/14 09:12:02;;;;;;;40.17;20.83;;;4.80;99.90;;;;;;5096353;28;20656;-71
2022/01/14 09:14:29;;;;;;;40.63;21.30;;;4.80;99.90;;;;;;5097045;28;20210;-71
2022/01/14 09:16:56;;;;;;;45.33;22.10;;;4.80;99.90;;;;;;5106107;28;20211;-71
2022/01/14 09:19:24;;;;;;;46.37;22.77;;;4.90;99.90;;;;;;5099120;28;20247;-71
2022/01/14 09:21:51;;;;;;;46.77;21.53;;;4.90;99.90;;;;;;5099726;28;20241;-71
2022/01/14 09:24:19;;;;;;;43.37;20.60;;;5.00;99.90;;;;;;5096269;28;20198;-71
2022/01/14 09:26:46;;;;;;;42.03;22.43;;;5.00;99.90;;;;;;5106663;28;20561;-71
2022/01/14 09:29:13;;;;;;;45.80;22.20;;;5.00;99.90;;;;;;5100173;28;20201;-71
2022/01/14 09:31:40;;;;;;;37.53;20.17;;;5.00;99.90;;;;;;5102402;28;20196;-71
2022/01/14 09:34:07;;;;;;;43.33;20.67;;;5.00;99.90;;;;;;5100082;28;20203;-71
2022/01/14 09:36:34;;;;;;;43.07;20.03;;;5.00;99.90;;;;;;5099882;28;20640;-71
2022/01/14 09:39:01;;;;;;;43.73;20.80;;;5.00;99.90;;;;;;5105628;28;20230;-71
2022/01/14 09:41:29;;;;;;;42.73;21.50;;;5.00;99.90;;;;;;5097926;28;20220;-71
2022/01/14 09:43:56;;;;;;;48.60;23.17;;;5.00;99.90;;;;;;5099298;28;20318;-71
2022/01/14 09:46:23;;;;;;;43.60;21.37;;;5.10;99.90;;;;;;5101796;28;20704;-71
2022/01/14 09:48:51;;;;;;;48.37;21.40;;;5.00;99.90;;;;;;5101917;28;20219;-71
2022/01/14 09:51:18;;;;;;;39.53;19.87;;;5.00;99.90;;;;;;5098558;28;20565;-71
2022/01/14 09:53:45;;;;;;;44.00;21.23;;;5.00;99.90;;;;;;5100106;28;20212;-71
2022/01/14 09:56:16;;;;;;;47.03;21.90;;;5.00;99.90;;;;;;5100006;28;20659;-71
2022/01/14 09:58:47;;;;;;;48.93;22.50;;;5.00;99.90;;;;;;5103135;28;20229;-71
2022/01/14 10:01:17;;;;;;;50.40;22.57;;;5.00;99.90;;;;;;5100307;28;20205;-71
2022/01/14 10:03:55;;;;;;;43.47;20.87;;;5.10;99.90;;;;;;5095274;28;20206;-71
2022/01/14 10:06:40;;;;;;;48.23;21.33;;;5.10;99.90;;;;;;5095415;28;20200;-71
2022/01/14 10:09:10;;;;;;;44.77;22.20;;;5.10;99.90;;;;;;5102054;28;20208;-71
2022/01/14 10:11:39;;;;;;;47.10;21.23;;;5.10;99.90;;;;;;5102842;28;20206;-71
2022/01/14 10:14:11;;;;;;;42.93;21.50;;;5.20;99.90;;;;;;5096894;28;20202;-71
2022/01/14 10:16:40;;;;;;;45.33;22.03;;;5.20;99.90;;;;;;5094607;28;20204;-71
2022/01/14 10:19:19;;;;;;;46.07;22.33;;;5.20;99.90;;;;;;5100790;28;20274;-71
2022/01/14 10:21:46;;;;;;;45.93;21.07;;;5.20;99.90;;;;;;5100225;28;20198;-71
2022/01/14 10:24:13;;;;;;;44.97;20.17;;;5.20;99.90;;;;;;5096931;28;20201;-71
2022/01/14 10:26:51;;;;;;;43.77;22.20;;;5.20;99.90;;;;;;5096083;28;20293;-71
2022/01/14 10:29:32;;;;;;;46.33;21.50;;;5.30;99.90;;;;;;5102548;28;20207;-71
2022/01/14 10:32:01;;;;;;;44.70;20.50;;;5.30;99.90;;;;;;5099376;28;20210;-71
2022/01/14 10:34:28;;;;;;;42.70;20.00;;;5.30;99.90;;;;;;5101726;28;20210;-71
2022/01/14 10:37:11;;;;;;;45.73;20.63;;;5.30;99.90;;;;;;5095220;28;20206;-71
2022/01/14 10:39:45;;;;;;;44.20;20.87;;;5.40;99.90;;;;;;5100241;28;20207;-71
2022/01/14 10:42:26;;;;;;;42.20;21.00;;;5.40;99.90;;;;;;5104780;28;20204;-71
2022/01/14 10:44:55;;;;;;;45.33;20.63;;;5.40;99.90;;;;;;5098362;28;20203;-71
2022/01/14 10:47:24;;;;;;;41.07;20.03;;;5.40;99.90;;;;;;5095413;28;20619;-71
2022/01/14 10:49:55;;;;;;;43.30;20.83;;;5.40;99.90;;;;;;5097233;28;20205;-71
2022/01/14 10:52:24;;;;;;;43.43;19.47;;;5.40;99.90;;;;;;5093475;28;20561;-71
2022/01/14 10:54:53;;;;;;;43.20;20.67;;;5.40;99.90;;;;;;5099978;28;20562;-71
2022/01/14 10:57:21;;;;;;;43.37;20.50;;;5.40;99.90;;;;;;5099791;28;20197;-71
2022/01/14 10:59:50;;;;;;;46.93;22.60;;;5.50;99.90;;;;;;5099424;28;20201;-71
2022/01/14 11:02:38;;;;;;;44.80;21.40;;;5.50;99.90;;;;;;5101613;28;20201;-71
2022/01/14 11:05:13;;;;;;;43.37;20.80;;;5.50;99.90;;;;;;5097925;28;20205;-71
2022/01/14 11:07:41;;;;;;;42.13;20.53;;;5.50;99.90;;;;;;5097673;28;20193;-71
2022/01/14 11:10:17;;;;;;;48.10;22.13;;;5.50;99.90;;;;;;5093212;28;20204;-71
2022/01/14 11:12:44;;;;;;;40.13;20.30;;;5.50;99.90;;;;;;5093359;28;20655;-71
2022/01/14 11:15:12;;;;;;;46.13;21.23;;;5.50;99.90;;;;;;5092981;28;20673;-71
2022/01/14 11:17:43;;;;;;;42.93;20.83;;;5.60;99.90;;;;;;5093001;28;20217;-71
2022/01/14 11:20:11;;;;;;;49.27;21.97;;;5.60;99.90;;;;;;5093794;28;20204;-71
2022/01/14 11:25:24;;;;;;;49.73;20.80;;;5.60;99.90;;;;;;5093136;28;20274;-71
2022/01/14 11:27:55;;;;;;;45.43;20.63;;;5.60;99.90;;;;;;5093349;28;20201;-71
2022/01/14 11:30:33;;;;;;;44.93;20.87;;;5.60;99.90;;;;;;5093379;28;20194;-71
2022/01/14 11:33:04;;;;;;;47.97;20.40;;;5.70;99.90;;;;;;5093364;28;20205;-71
2022/01/14 11:35:33;;;;;;;47.87;21.23;;;5.70;99.90;;;;;;5092913;28;20205;-71
2022/01/14 11:38:00;;;;;;;47.20;21.67;;;5.70;99.90;;;;;;5093053;28;20227;-71
2022/01/14 11:40:28;;;;;;;48.83;21.63;;;5.70;99.90;;;;;;5092590;28;20201;-71
2022/01/14 11:42:59;;;;;;;43.13;20.77;;;5.70;99.90;;;;;;5092975;28;20220;-71
2022/01/14 11:45:54;;;;;;;46.70;19.83;;;5.80;99.90;;;;;;5092760;28;20205;-71
2022/01/14 11:48:34;;;;;;;47.93;22.37;;;5.80;99.90;;;;;;5092247;28;20197;-71
2022/01/14 11:51:02;;;;;;;42.07;19.50;;;5.90;99.90;;;;;;5092398;28;20589;-71
2022/01/14 11:53:38;;;;;;;47.43;21.43;;;5.80;99.90;;;;;;5092196;28;20208;-71
2022/01/14 11:56:08;;;;;;;46.97;20.17;;;5.90;99.90;;;;;;5092279;28;20201;-71
2022/01/14 11:58:35;;;;;;;51.23;20.57;;;5.90;99.90;;;;;;5096764;28;20247;-71
2022/01/14 12:01:04;;;;;;;38.63;17.90;;;5.90;99.90;;;;;;5099702;28;20209;-71
2022/01/14 12:03:32;;;;;;;38.93;18.50;;;5.80;99.90;;;;;;5100046;28;20644;-71
2022/01/14 12:06:02;;;;;;;53.73;19.67;;;5.80;99.90;;;;;;5095712;28;20202;-71
2022/01/14 12:08:30;;;;;;;43.80;18.67;;;5.80;99.90;;;;;;5094079;28;20243;-71
2022/01/14 12:11:17;;;;;;;40.63;20.20;;;5.80;99.90;;;;;;5097772;28;20576;-71
2022/01/14 12:14:04;;;;;;;40.23;19.00;;;5.80;99.90;;;;;;5094599;28;20208;-71
2022/01/14 12:16:45;;;;;;;39.17;18.27;;;5.80;99.90;;;;;;5098085;28;20235;-71
2022/01/14 12:19:19;;;;;;;39.47;18.63;;;5.80;99.90;;;;;;5097683;28;20279;-71
2022/01/14 12:21:59;;;;;;;39.13;17.50;;;5.80;99.90;;;;;;5094715;28;20193;-71
2022/01/14 12:24:31;;;;;;;41.97;19.73;;;5.80;99.90;;;;;;5093557;28;20205;-70
2022/01/14 12:27:44;;;;;;;42.73;19.50;;;5.80;99.90;;;;;;5099798;28;20201;-70
2022/01/14 12:30:24;;;;;;;41.87;18.57;;;5.80;99.90;;;;;;5032589;28;20207;-70
2022/01/14 12:32:56;;;;;;;36.67;17.90;;;5.80;99.90;;;;;;5033479;28;20257;-70
2022/01/14 12:35:32;;;;;;;43.10;19.57;;;5.90;99.90;;;;;;5071225;28;20210;-71
2022/01/14 12:38:00;;;;;;;36.57;18.33;;;5.90;99.90;;;;;;5088323;28;20201;-70
2022/01/14 12:40:31;;;;;;;38.20;18.33;;;5.90;99.90;;;;;;5101284;28;20201;-70
2022/01/14 12:42:59;;;;;;;36.40;17.37;;;5.90;99.90;;;;;;5100451;28;20678;-71
2022/01/14 12:45:36;;;;;;;36.93;18.80;;;5.90;99.90;;;;;;5098045;28;20201;-71
2022/01/14 12:48:40;;;;;;;44.07;19.50;;;5.90;99.90;;;;;;5094914;28;20201;-71
2022/01/14 12:51:16;;;;;;;37.40;18.93;;;6.00;99.90;;;;;;5097929;28;20216;-70
2022/01/14 12:53:48;;;;;;;39.00;19.23;;;6.00;99.90;;;;;;5097060;28;20223;-71
2022/01/14 12:56:17;;;;;;;39.30;18.43;;;6.00;99.90;;;;;;5104125;28;20201;-71
2022/01/14 12:59:02;;;;;;;37.23;19.73;;;6.00;99.90;;;;;;5099718;28;20213;-71
2022/01/14 13:01:34;;;;;;;39.83;18.60;;;6.00;99.90;;;;;;5098153;28;20201;-71